createdAt,value
2023-02-06T00:01:29.546Z,9.32
2023-02-06T00:03:57.253Z,12.50
2023-02-06T00:06:25.003Z,7.10
2023-02-06T00:08:52.874Z,10.23
2023-02-06T00:11:22.329Z,12.45
2023-02-06T00:13:51.816Z,15.13
2023-02-06T00:16:24.700Z,9.45
2023-02-06T00:18:54.205Z,9.32
2023-02-06T00:21:24.937Z,9.00
2023-02-06T00:23:56.278Z,8.13
2023-02-06T00:26:25.757Z,7.75
2023-02-06T00:28:54.570Z,7.20
2023-02-06T00:31:22.939Z,10.00
2023-02-06T00:33:51.014Z,10.63
2023-02-06T00:36:18.077Z,10.75
2023-02-06T00:38:44.955Z,9.57
2023-02-06T00:41:12.976Z,7.80
2023-02-06T00:43:40.961Z,8.77
2023-02-06T00:46:08.801Z,5.85
2023-02-06T00:48:37.147Z,9.73
2023-02-06T00:51:08.236Z,5.93
2023-02-06T00:53:36.392Z,9.20
2023-02-06T00:56:03.374Z,7.75
2023-02-06T00:58:31.306Z,6.20
2023-02-06T01:00:58.185Z,7.18
2023-02-06T01:03:26.520Z,12.82
2023-02-06T01:05:54.518Z,10.73
2023-02-06T01:08:22.772Z,6.22
2023-02-06T01:10:52.696Z,10.25
2023-02-06T01:13:21.940Z,7.25
2023-02-06T01:15:51.273Z,9.38
2023-02-06T01:18:18.927Z,7.93
2023-02-06T01:20:47.063Z,8.60
2023-02-06T01:23:15.531Z,5.97
2023-02-06T01:25:44.832Z,8.93
2023-02-06T01:28:14.495Z,8.82
2023-02-06T01:30:41.678Z,8.73
2023-02-06T01:33:08.534Z,6.20
2023-02-06T01:35:37.106Z,6.05
2023-02-06T01:38:06.230Z,11.27
2023-02-06T01:40:34.444Z,7.68
2023-02-06T01:43:03.859Z,7.65
2023-02-06T01:45:42.087Z,6.82
2023-02-06T01:48:14.537Z,10.98
2023-02-06T01:50:46.526Z,9.73
2023-02-06T01:53:17.142Z,7.05
2023-02-06T01:55:47.579Z,5.60
2023-02-06T01:58:21.118Z,6.95
2023-02-06T02:00:51.829Z,6.55
2023-02-06T02:03:18.878Z,11.43
2023-02-06T02:05:50.642Z,9.90
2023-02-06T02:08:33.609Z,5.80
2023-02-06T02:11:03.430Z,11.52
2023-02-06T02:13:32.289Z,10.00
2023-02-06T02:16:13.224Z,9.85
2023-02-06T02:19:16.542Z,12.35
2023-02-06T02:22:05.035Z,8.88
2023-02-06T02:24:48.194Z,10.98
2023-02-06T02:27:31.695Z,12.65
2023-02-06T02:30:15.813Z,6.93
2023-02-06T02:32:58.168Z,10.68
2023-02-06T02:35:38.076Z,10.18
2023-02-06T02:38:24.206Z,8.52
2023-02-06T02:40:56.353Z,11.05
2023-02-06T02:43:54.208Z,11.85
2023-02-06T02:46:33.118Z,9.43
2023-02-06T02:49:09.933Z,7.43
2023-02-06T02:51:40.591Z,10.18
2023-02-06T02:54:10.479Z,10.38
2023-02-06T02:56:38.672Z,9.18
2023-02-06T02:59:11.441Z,10.07
2023-02-06T03:01:49.778Z,7.82
2023-02-06T03:04:23.548Z,6.72
2023-02-06T03:07:14.125Z,9.40
2023-02-06T03:09:45.935Z,15.10
2023-02-06T03:12:22.109Z,9.77
2023-02-06T03:15:03.193Z,7.70
2023-02-06T03:17:46.920Z,10.52
2023-02-06T03:20:15.629Z,11.27
2023-02-06T03:22:47.333Z,9.18
2023-02-06T03:25:21.851Z,13.60
2023-02-06T03:27:52.811Z,12.18
2023-02-06T03:30:24.288Z,11.10
2023-02-06T03:32:56.577Z,13.40
2023-02-06T03:35:31.295Z,11.18
2023-02-06T03:37:59.058Z,16.20
2023-02-06T03:40:30.459Z,14.05
2023-02-06T03:43:01.304Z,9.85
2023-02-06T03:45:47.733Z,11.98
2023-02-06T03:48:22.917Z,10.10
2023-02-06T03:50:54.332Z,9.23
2023-02-06T03:53:25.030Z,11.23
2023-02-06T03:55:58.203Z,8.70
2023-02-06T03:58:25.728Z,10.38
2023-02-06T04:00:53.332Z,7.18
2023-02-06T04:03:24.219Z,7.50
2023-02-06T04:05:52.468Z,9.73
2023-02-06T04:08:22.258Z,10.13
2023-02-06T04:10:50.195Z,6.82
2023-02-06T04:13:18.612Z,11.82
2023-02-06T04:15:46.713Z,11.23
2023-02-06T04:18:14.768Z,9.77
2023-02-06T04:20:43.192Z,12.55
2023-02-06T04:23:10.324Z,11.95
2023-02-06T04:25:38.724Z,13.20
2023-02-06T04:28:07.264Z,8.63
2023-02-06T04:30:35.866Z,11.15
2023-02-06T04:33:05.708Z,10.90
2023-02-06T04:35:35.742Z,10.35
2023-02-06T04:38:02.903Z,9.20
2023-02-06T04:40:30.963Z,11.70
2023-02-06T04:42:58.324Z,9.73
2023-02-06T04:45:26.383Z,12.38
2023-02-06T04:47:55.047Z,11.35
2023-02-06T04:50:24.254Z,17.30
2023-02-06T04:52:55.425Z,10.15
2023-02-06T04:55:25.844Z,12.18
2023-02-06T04:57:55.396Z,10.70
2023-02-06T05:00:22.777Z,11.77
2023-02-06T05:02:50.212Z,14.98
2023-02-06T05:05:19.093Z,11.05
2023-02-06T05:07:47.224Z,14.07
2023-02-06T05:10:16.218Z,10.80
2023-02-06T05:12:45.439Z,9.43
2023-02-06T05:15:15.240Z,10.90
2023-02-06T05:17:42.154Z,11.30
2023-02-06T05:20:10.881Z,13.52
2023-02-06T05:22:38.219Z,12.90
2023-02-06T05:25:06.986Z,14.75
2023-02-06T05:27:34.974Z,18.60
2023-02-06T05:30:03.917Z,20.05
2023-02-06T05:32:31.386Z,14.02
2023-02-06T05:34:59.303Z,15.13
2023-02-06T05:37:28.004Z,15.23
2023-02-06T05:39:56.697Z,14.60
2023-02-06T05:42:27.141Z,12.63
2023-02-06T05:44:54.386Z,12.77
2023-02-06T05:47:26.075Z,13.20
2023-02-06T05:49:54.678Z,13.90
2023-02-06T05:52:25.628Z,14.40
2023-02-06T05:54:53.301Z,22.90
2023-02-06T05:57:22.423Z,15.98
2023-02-06T05:59:51.322Z,18.40
2023-02-06T06:02:22.932Z,20.45
2023-02-06T06:04:52.051Z,26.38
2023-02-06T06:07:22.397Z,14.63
2023-02-06T06:09:49.498Z,14.55
2023-02-06T06:12:17.790Z,13.57
2023-02-06T06:14:46.096Z,18.10
2023-02-06T06:17:15.114Z,16.13
2023-02-06T06:19:44.914Z,16.65
2023-02-06T06:22:15.379Z,13.65
2023-02-06T06:24:44.942Z,16.77
2023-02-06T06:27:15.306Z,21.00
2023-02-06T06:29:43.980Z,18.88
2023-02-06T06:32:12.650Z,15.75
2023-02-06T06:34:40.361Z,16.52
2023-02-06T06:37:09.819Z,15.80
2023-02-06T06:39:37.037Z,17.48
2023-02-06T06:42:05.613Z,14.88
2023-02-06T06:44:33.203Z,18.63
2023-02-06T06:47:00.050Z,20.20
2023-02-06T06:49:29.069Z,20.02
2023-02-06T06:51:59.373Z,14.32
2023-02-06T06:54:27.413Z,15.32
2023-02-06T06:56:55.573Z,19.88
2023-02-06T06:59:24.607Z,17.75
2023-02-06T07:01:53.440Z,14.85
2023-02-06T07:04:23.692Z,15.40
2023-02-06T07:06:52.177Z,19.05
2023-02-06T07:09:21.306Z,16.67
2023-02-06T07:11:49.402Z,22.02
2023-02-06T07:14:17.626Z,14.65
2023-02-06T07:16:45.809Z,19.70
2023-02-06T07:19:15.115Z,20.27
2023-02-06T07:21:42.375Z,17.55
2023-02-06T07:24:09.231Z,22.15
2023-02-06T07:26:36.900Z,17.90
2023-02-06T07:29:06.253Z,20.83
2023-02-06T07:31:35.170Z,19.45
2023-02-06T07:34:03.188Z,17.50
2023-02-06T07:36:31.026Z,24.67
2023-02-06T07:38:58.124Z,25.55
2023-02-06T07:41:25.781Z,22.05
2023-02-06T07:43:55.167Z,20.58
2023-02-06T07:46:23.752Z,18.45
2023-02-06T07:48:52.417Z,17.73
2023-02-06T07:51:21.420Z,21.95
2023-02-06T07:53:50.851Z,15.77
2023-02-06T07:56:24.180Z,14.20
2023-02-06T07:58:54.423Z,14.73
2023-02-06T08:01:25.714Z,17.23
2023-02-06T08:03:54.716Z,16.13
2023-02-06T08:06:24.610Z,25.27
2023-02-06T08:08:56.332Z,25.10
2023-02-06T08:11:26.853Z,18.55
2023-02-06T08:13:55.437Z,23.17
2023-02-06T08:16:25.887Z,21.23
2023-02-06T08:18:54.564Z,22.02
2023-02-06T08:21:26.069Z,26.25
2023-02-06T08:23:58.987Z,22.00
2023-02-06T08:26:30.703Z,20.88
2023-02-06T08:29:01.185Z,22.90
2023-02-06T08:31:32.654Z,23.48
2023-02-06T08:34:00.348Z,26.83
2023-02-06T08:36:32.049Z,25.38
2023-02-06T08:39:00.555Z,33.70
2023-02-06T08:41:29.931Z,34.55
2023-02-06T08:44:00.307Z,27.17
2023-02-06T08:46:31.088Z,23.25
2023-02-06T08:49:03.329Z,23.02
2023-02-06T08:51:32.745Z,33.28
2023-02-06T08:54:08.439Z,28.67
2023-02-06T08:56:38.860Z,29.17
2023-02-06T08:59:06.839Z,21.48
2023-02-06T09:01:37.396Z,26.98
2023-02-06T09:04:07.975Z,28.55
2023-02-06T09:06:37.820Z,30.02
2023-02-06T09:09:08.327Z,31.20
2023-02-06T09:11:39.048Z,30.80
2023-02-06T09:14:08.627Z,40.03
2023-02-06T09:16:38.018Z,29.13
2023-02-06T09:19:07.748Z,26.73
2023-02-06T09:21:36.740Z,25.80
2023-02-06T09:24:07.239Z,37.35
2023-02-06T09:26:44.784Z,38.08
2023-02-06T09:29:17.175Z,29.90
2023-02-06T09:31:44.671Z,33.85
2023-02-06T09:34:13.850Z,26.40
2023-02-06T09:36:43.342Z,26.20
2023-02-06T09:39:10.969Z,29.02
2023-02-06T09:41:55.251Z,22.98
2023-02-06T09:44:32.555Z,28.67
2023-02-06T09:47:25.326Z,24.35
2023-02-06T09:49:59.568Z,27.60
2023-02-06T09:52:47.729Z,26.13
2023-02-06T09:55:29.725Z,26.15
2023-02-06T09:58:19.362Z,28.73
2023-02-06T10:00:56.198Z,31.90
2023-02-06T10:03:51.595Z,24.38
2023-02-06T10:06:20.738Z,38.00
2023-02-06T10:09:04.669Z,32.45
2023-02-06T10:11:45.817Z,27.67
2023-02-06T10:14:36.815Z,26.88
2023-02-06T10:17:16.175Z,32.30
2023-02-06T10:20:06.173Z,32.25
2023-02-06T10:22:41.721Z,37.35
2023-02-06T10:25:30.891Z,28.92
2023-02-06T10:28:02.385Z,32.97
2023-02-06T10:30:51.867Z,29.20
2023-02-06T10:33:34.778Z,29.42
2023-02-06T10:36:16.463Z,30.67
2023-02-06T10:39:21.137Z,30.63
2023-02-06T10:41:58.464Z,32.67
2023-02-06T10:44:50.828Z,27.88
2023-02-06T10:47:37.557Z,29.08
2023-02-06T10:50:17.948Z,30.48
2023-02-06T10:52:48.961Z,29.60
2023-02-06T10:55:33.500Z,28.70
2023-02-06T10:58:18.921Z,29.15
2023-02-06T11:00:48.965Z,27.25
2023-02-06T11:03:21.928Z,29.05
2023-02-06T11:05:53.609Z,23.33
2023-02-06T11:08:34.216Z,29.30
2023-02-06T11:11:22.147Z,28.35
2023-02-06T11:13:58.612Z,33.35
2023-02-06T11:19:01.697Z,27.15
2023-02-06T11:21:46.790Z,25.42
2023-02-06T11:24:17.874Z,23.00
2023-02-06T11:26:50.350Z,28.02
2023-02-06T11:29:22.679Z,31.25
2023-02-06T11:31:57.117Z,26.80
2023-02-06T11:34:30.243Z,29.60
2023-02-06T11:37:00.842Z,20.73
2023-02-06T11:39:31.002Z,21.25
2023-02-06T11:41:59.542Z,20.60
2023-02-06T11:44:29.564Z,19.98
2023-02-06T11:46:57.214Z,18.48
2023-02-06T11:49:29.748Z,21.73
2023-02-06T11:52:01.533Z,27.48
2023-02-06T11:54:34.886Z,19.95
2023-02-06T11:57:09.788Z,25.17
2023-02-06T11:59:53.091Z,18.73
2023-02-06T12:02:35.881Z,26.08
2023-02-06T12:05:04.826Z,13.40
2023-02-06T12:07:38.993Z,23.13
2023-02-06T12:10:15.671Z,13.23
2023-02-06T12:12:50.197Z,20.60
2023-02-06T12:15:46.436Z,19.95
2023-02-06T12:18:23.542Z,19.08
2023-02-06T12:21:03.636Z,18.02
2023-02-06T12:23:39.005Z,16.90
2023-02-06T12:26:12.929Z,21.83
2023-02-06T12:28:51.052Z,22.73
2023-02-06T12:31:25.571Z,15.40
2023-02-06T12:34:00.660Z,20.92
2023-02-06T12:36:38.075Z,18.02
2023-02-06T12:39:20.089Z,17.75
2023-02-06T12:42:03.263Z,15.80
2023-02-06T12:44:39.880Z,16.73
2023-02-06T12:47:15.294Z,17.05
2023-02-06T12:49:55.074Z,16.70
2023-02-06T12:52:31.273Z,14.68
2023-02-06T12:55:18.918Z,22.92
2023-02-06T12:57:47.274Z,15.63
2023-02-06T13:00:46.302Z,19.65
2023-02-06T13:03:24.631Z,16.42
2023-02-06T13:06:18.937Z,20.75
2023-02-06T13:08:56.083Z,18.42
2023-02-06T13:11:41.116Z,20.33
2023-02-06T13:14:18.157Z,18.67
2023-02-06T13:16:51.415Z,24.30
2023-02-06T13:19:49.191Z,19.38
2023-02-06T13:22:19.687Z,18.20
2023-02-06T13:24:50.201Z,21.13
2023-02-06T13:27:41.425Z,19.15
2023-02-06T13:30:45.129Z,15.95
2023-02-06T13:33:22.993Z,19.33
2023-02-06T13:35:59.045Z,19.58
2023-02-06T13:38:38.994Z,15.90
2023-02-06T13:41:25.761Z,19.45
2023-02-06T13:43:57.997Z,19.23
2023-02-06T13:46:57.175Z,11.90
2023-02-06T13:49:54.792Z,14.30
2023-02-06T13:52:45.910Z,16.80
2023-02-06T13:55:25.890Z,15.88
2023-02-06T13:57:55.396Z,13.82
2023-02-06T14:00:31.570Z,16.05
2023-02-06T14:05:43.097Z,15.35
2023-02-06T14:08:26.604Z,19.73
2023-02-06T14:10:55.071Z,17.52
2023-02-06T14:13:45.213Z,14.40
2023-02-06T14:16:25.743Z,21.65
2023-02-06T14:19:11.409Z,12.88
2023-02-06T14:21:42.198Z,15.93
2023-02-06T14:24:28.002Z,12.35
2023-02-06T14:27:24.265Z,15.88
2023-02-06T14:29:58.910Z,19.65
2023-02-06T14:32:57.125Z,15.18
2023-02-06T14:35:31.727Z,18.27
2023-02-06T14:38:06.133Z,13.52
2023-02-06T14:40:39.747Z,18.77
2023-02-06T14:43:12.691Z,13.38
2023-02-06T14:45:47.707Z,19.02
2023-02-06T14:48:31.858Z,18.48
2023-02-06T14:51:01.059Z,19.30
2023-02-06T14:53:31.269Z,16.83
2023-02-06T14:56:25.664Z,16.42
2023-02-06T14:58:54.690Z,19.63
2023-02-06T15:01:28.952Z,20.83
2023-02-06T15:04:16.007Z,17.70
2023-02-06T15:06:51.618Z,17.92
2023-02-06T15:09:30.814Z,18.05
2023-02-06T15:12:04.710Z,18.10
2023-02-06T15:14:34.388Z,18.35
2023-02-06T15:17:02.897Z,18.50
2023-02-06T15:19:33.478Z,14.75
2023-02-06T15:22:07.531Z,18.95
2023-02-06T15:24:46.055Z,14.43
2023-02-06T15:27:35.070Z,22.90
2023-02-06T15:30:27.818Z,20.73
2023-02-06T15:32:56.837Z,29.50
2023-02-06T15:35:37.374Z,15.90
2023-02-06T15:38:10.293Z,18.30
2023-02-06T15:40:42.309Z,18.33
2023-02-06T15:43:16.161Z,15.07
2023-02-06T15:45:46.508Z,14.82
2023-02-06T15:48:40.977Z,19.90
2023-02-06T15:51:26.180Z,17.15
2023-02-06T15:54:18.230Z,23.45
2023-02-06T15:56:51.706Z,21.75
2023-02-06T15:59:24.138Z,18.45
2023-02-06T16:01:55.673Z,21.17
2023-02-06T16:04:36.255Z,21.95
2023-02-06T16:07:24.822Z,19.05
2023-02-06T16:09:58.005Z,21.58
2023-02-06T16:12:26.918Z,23.98
2023-02-06T16:14:59.116Z,23.73
2023-02-06T16:17:36.020Z,32.38
2023-02-06T16:20:24.941Z,25.73
2023-02-06T16:22:58.845Z,32.13
2023-02-06T16:25:35.536Z,25.67
2023-02-06T16:28:14.791Z,29.92
2023-02-06T16:30:43.730Z,25.67
2023-02-06T16:33:26.380Z,29.75
2023-02-06T16:35:55.059Z,20.20
2023-02-06T16:38:23.067Z,22.00
2023-02-06T16:40:53.248Z,24.48
2023-02-06T16:43:22.077Z,20.25
2023-02-06T16:45:51.159Z,25.77
2023-02-06T16:48:20.217Z,31.35
2023-02-06T16:50:51.162Z,23.90
2023-02-06T16:53:25.673Z,26.20
2023-02-06T16:55:58.624Z,29.30
2023-02-06T16:58:30.660Z,26.35
2023-02-06T17:00:59.880Z,24.88
2023-02-06T17:03:28.650Z,26.13
2023-02-06T17:05:58.821Z,27.40
2023-02-06T17:08:26.797Z,22.33
2023-02-06T17:10:55.188Z,27.52
2023-02-06T17:13:24.852Z,32.92
2023-02-06T17:15:54.422Z,31.13
2023-02-06T17:18:24.719Z,42.47
2023-02-06T17:20:57.188Z,32.40
2023-02-06T17:23:26.246Z,38.45
2023-02-06T17:25:55.108Z,31.35
2023-02-06T17:28:24.204Z,35.60
2023-02-06T17:30:54.440Z,29.73
2023-02-06T17:33:23.326Z,30.05
2023-02-06T17:35:51.766Z,32.10
2023-02-06T17:38:21.291Z,27.75
2023-02-06T17:40:49.615Z,29.95
2023-02-06T17:43:20.601Z,23.45
2023-02-06T17:45:49.754Z,25.00
2023-02-06T17:48:18.063Z,25.45
2023-02-06T17:50:45.578Z,25.17
2023-02-06T17:53:15.596Z,24.98
2023-02-06T17:55:45.842Z,25.98
2023-02-06T17:58:13.953Z,33.80
2023-02-06T18:00:42.528Z,31.38
2023-02-06T18:03:12.505Z,28.75
2023-02-06T18:05:41.281Z,21.85
2023-02-06T18:08:09.519Z,23.92
2023-02-06T18:10:40.553Z,29.73
2023-02-06T18:13:09.131Z,21.58
2023-02-06T18:15:37.608Z,21.20
2023-02-06T18:18:06.988Z,18.15
2023-02-06T18:20:36.960Z,21.90
2023-02-06T18:23:05.669Z,27.92
2023-02-06T18:25:35.100Z,20.80
2023-02-06T18:28:03.967Z,19.95
2023-02-06T18:30:34.593Z,23.75
2023-02-06T18:33:03.328Z,26.95
2023-02-06T18:35:42.086Z,22.50
2023-02-06T18:38:12.318Z,23.20
2023-02-06T18:40:43.580Z,22.25
2023-02-06T18:43:14.622Z,27.33
2023-02-06T18:45:44.679Z,30.27
2023-02-06T18:48:14.934Z,32.80
2023-02-06T18:50:44.138Z,26.35
2023-02-06T18:53:12.917Z,26.15
2023-02-06T18:55:43.969Z,23.58
2023-02-06T18:58:11.693Z,23.23
2023-02-06T19:00:42.772Z,21.25
2023-02-06T19:03:11.564Z,23.45
2023-02-06T19:05:38.710Z,22.23
2023-02-06T19:08:06.401Z,21.40
2023-02-06T19:10:35.604Z,23.13
2023-02-06T19:13:04.818Z,20.38
2023-02-06T19:15:34.827Z,17.90
2023-02-06T19:18:05.053Z,22.08
2023-02-06T19:20:33.491Z,27.00
2023-02-06T19:23:01.585Z,17.92
2023-02-06T19:25:30.560Z,19.20
2023-02-06T19:27:58.803Z,24.90
2023-02-06T19:30:26.909Z,18.02
2023-02-06T19:32:54.523Z,18.20
2023-02-06T19:35:23.476Z,18.55
2023-02-06T19:37:52.090Z,21.63
2023-02-06T19:40:20.495Z,21.67
2023-02-06T19:42:48.906Z,22.90
2023-02-06T19:45:17.374Z,19.13
2023-02-06T19:47:45.001Z,24.45
2023-02-06T19:50:14.330Z,26.60
2023-02-06T19:52:41.967Z,29.65
2023-02-06T19:55:10.403Z,23.73
2023-02-06T19:57:39.706Z,23.73
2023-02-06T20:00:09.283Z,25.25
2023-02-06T20:02:36.749Z,20.95
2023-02-06T20:05:05.055Z,20.08
2023-02-06T20:07:33.566Z,30.08
2023-02-06T20:10:01.922Z,20.75
2023-02-06T20:12:30.586Z,15.70
2023-02-06T20:15:00.693Z,23.58
2023-02-06T20:17:29.161Z,23.23
2023-02-06T20:19:59.894Z,25.90
2023-02-06T20:22:28.164Z,22.55
2023-02-06T20:24:56.173Z,14.95
2023-02-06T20:27:24.970Z,15.85
2023-02-06T20:29:51.952Z,21.35
2023-02-06T20:32:19.965Z,19.40
2023-02-06T20:34:47.766Z,16.73
2023-02-06T20:37:17.753Z,20.75
2023-02-06T20:39:46.577Z,31.33
2023-02-06T20:42:14.340Z,24.55
2023-02-06T20:44:41.353Z,32.67
2023-02-06T20:47:10.570Z,28.30
2023-02-06T20:49:37.938Z,23.67
2023-02-06T20:52:06.680Z,22.83
2023-02-06T20:54:35.043Z,21.90
2023-02-06T20:57:06.200Z,22.38
2023-02-06T20:59:35.737Z,22.92
2023-02-06T21:02:05.058Z,24.75
2023-02-06T21:04:35.901Z,25.80
2023-02-06T21:07:04.317Z,26.23
2023-02-06T21:09:31.845Z,23.08
2023-02-06T21:11:59.538Z,22.88
2023-02-06T21:14:30.600Z,20.45
2023-02-06T21:16:59.309Z,17.00
2023-02-06T21:19:29.763Z,19.58
2023-02-06T21:21:58.242Z,25.20
2023-02-06T21:24:27.060Z,25.42
2023-02-06T21:26:56.265Z,24.58
2023-02-06T21:29:25.308Z,21.50
2023-02-06T21:32:07.159Z,15.50
2023-02-06T21:34:40.546Z,30.42
2023-02-06T21:37:08.852Z,24.55
2023-02-06T21:39:39.449Z,26.88
2023-02-06T21:42:10.615Z,26.25
2023-02-06T21:44:39.120Z,25.67
2023-02-06T21:47:10.784Z,24.70
2023-02-06T21:49:39.778Z,20.02
2023-02-06T21:52:08.599Z,23.15
2023-02-06T21:54:36.944Z,16.95
2023-02-06T21:57:05.756Z,17.90
2023-02-06T21:59:34.872Z,20.40
2023-02-06T22:02:04.831Z,25.63
2023-02-06T22:04:34.512Z,19.92
2023-02-06T22:07:03.203Z,18.77
2023-02-06T22:09:31.797Z,21.00
2023-02-06T22:12:00.877Z,21.70
2023-02-06T22:14:29.876Z,16.27
2023-02-06T22:16:58.395Z,19.58
2023-02-06T22:19:28.878Z,20.73
2023-02-06T22:21:56.822Z,17.25
2023-02-06T22:24:26.104Z,20.75
2023-02-06T22:26:54.080Z,24.67
2023-02-06T22:29:23.310Z,15.55
2023-02-06T22:31:53.010Z,14.70
2023-02-06T22:34:22.573Z,16.67
2023-02-06T22:36:51.577Z,21.40
2023-02-06T22:39:19.762Z,14.63
2023-02-06T22:41:48.652Z,21.35
2023-02-06T22:44:21.516Z,18.98
2023-02-06T22:46:54.357Z,19.80
2023-02-06T22:49:25.105Z,13.75
2023-02-06T22:51:54.649Z,15.35
2023-02-06T22:54:23.959Z,15.27
2023-02-06T22:56:52.441Z,21.17
2023-02-06T22:59:24.244Z,15.80
2023-02-06T23:01:58.135Z,16.30
2023-02-06T23:04:28.648Z,16.35
2023-02-06T23:06:57.314Z,18.52
2023-02-06T23:09:28.201Z,16.17
2023-02-06T23:11:58.464Z,16.10
2023-02-06T23:14:27.243Z,17.83
2023-02-06T23:16:55.984Z,17.50
2023-02-06T23:19:24.296Z,16.80
2023-02-06T23:21:53.580Z,21.75
2023-02-06T23:24:21.889Z,17.10
2023-02-06T23:26:51.095Z,20.48
2023-02-06T23:29:21.637Z,17.08
2023-02-06T23:31:51.928Z,24.08
2023-02-06T23:34:19.899Z,16.45
2023-02-06T23:36:48.604Z,16.20
2023-02-06T23:39:15.582Z,20.70
2023-02-06T23:41:45.378Z,18.42
2023-02-06T23:44:13.988Z,17.85
2023-02-06T23:46:42.091Z,19.88
2023-02-06T23:49:11.697Z,19.10
2023-02-06T23:51:40.682Z,19.95
2023-02-06T23:54:10.190Z,17.55
2023-02-06T23:56:39.839Z,15.07
2023-02-06T23:59:07.778Z,16.80
